Terminal Aerodrome Forecast
Issued by NWS Columbia, SC

Home | Current Version | Previous Version | Text Only | Print | Product List | Glossary On
Versions: 1 2 3 4 5 6 7 8 9 10 11 12 13 14 15 16 17 18 19 20 21 22 23 24 25 26 27 28 29 30 31 32 33 34 35 36 37 38 39 40
000
FTUS42 KCAE 031700
TAFCAE
TAF
KCAE 031736Z 0318/0418 07007KT 2SM -DZ OVC005
      TEMPO 0318/0321 2SM -RADZ BR
     FM040500 VRB03KT 1SM -DZ BR OVC003 WS020/21035KT
     FM040700 19005KT 1/2SM -DZ FG OVC001 WS020/21035KT
     FM041400 23010KT 5SM BR BKN012
     FM041600 23012KT P6SM SCT015=

USA.gov is the U.S. government's official web portal to all federal, state and local government web resources and services.